sensor_id;sensor_type;location;lat;lon;timestamp;P1;durP1;ratioP1;P2;durP2;ratioP2
51636;SDS011;37713;53.254;6.460;2022-09-09T00:03:43;10.18;;;7.07;;
51636;SDS011;37713;53.254;6.460;2022-09-09T00:06:21;11.43;;;7.32;;
51636;SDS011;37713;53.254;6.460;2022-09-09T00:09:08;16.10;;;7.47;;
51636;SDS011;37713;53.254;6.460;2022-09-09T00:12:01;14.52;;;7.70;;
51636;SDS011;37713;53.254;6.460;2022-09-09T00:22:59;16.27;;;7.22;;
51636;SDS011;37713;53.254;6.460;2022-09-09T00:25:34;12.80;;;7.07;;
51636;SDS011;37713;53.254;6.460;2022-09-09T00:28:24;15.25;;;7.78;;
51636;SDS011;37713;53.254;6.460;2022-09-09T00:30:52;16.13;;;8.48;;
51636;SDS011;37713;53.254;6.460;2022-09-09T00:33:20;14.15;;;7.78;;
51636;SDS011;37713;53.254;6.460;2022-09-09T00:35:52;16.55;;;8.32;;
51636;SDS011;37713;53.254;6.460;2022-09-09T00:40:52;16.30;;;7.50;;
51636;SDS011;37713;53.254;6.460;2022-09-09T00:43:30;13.38;;;7.70;;
51636;SDS011;37713;53.254;6.460;2022-09-09T00:46:10;18.77;;;8.15;;
51636;SDS011;37713;53.254;6.460;2022-09-09T01:02:59;16.70;;;8.20;;
51636;SDS011;37713;53.254;6.460;2022-09-09T01:05:49;14.02;;;8.93;;
51636;SDS011;37713;53.254;6.460;2022-09-09T01:16:50;13.52;;;9.05;;
51636;SDS011;37713;53.254;6.460;2022-09-09T01:28:05;15.10;;;8.10;;
51636;SDS011;37713;53.254;6.460;2022-09-09T01:30:38;16.35;;;9.65;;
51636;SDS011;37713;53.254;6.460;2022-09-09T01:33:07;21.00;;;9.60;;
51636;SDS011;37713;53.254;6.460;2022-09-09T01:38:16;17.35;;;9.07;;
51636;SDS011;37713;53.254;6.460;2022-09-09T01:40:43;13.93;;;8.15;;
51636;SDS011;37713;53.254;6.460;2022-09-09T01:43:09;15.85;;;8.52;;
51636;SDS011;37713;53.254;6.460;2022-09-09T01:45:35;18.05;;;9.13;;
51636;SDS011;37713;53.254;6.460;2022-09-09T01:48:03;18.15;;;9.27;;
51636;SDS011;37713;53.254;6.460;2022-09-09T01:50:29;14.15;;;8.25;;
51636;SDS011;37713;53.254;6.460;2022-09-09T01:52:58;14.63;;;8.65;;
51636;SDS011;37713;53.254;6.460;2022-09-09T01:55:31;19.25;;;9.02;;
51636;SDS011;37713;53.254;6.460;2022-09-09T02:00:32;11.90;;;7.72;;
51636;SDS011;37713;53.254;6.460;2022-09-09T02:05:38;12.30;;;7.20;;
51636;SDS011;37713;53.254;6.460;2022-09-09T02:08:15;11.65;;;7.15;;
51636;SDS011;37713;53.254;6.460;2022-09-09T02:10:53;13.02;;;7.25;;
51636;SDS011;37713;53.254;6.460;2022-09-09T02:13:23;14.02;;;6.85;;
51636;SDS011;37713;53.254;6.460;2022-09-09T02:18:22;11.95;;;6.80;;
51636;SDS011;37713;53.254;6.460;2022-09-09T02:20:57;17.15;;;7.22;;
51636;SDS011;37713;53.254;6.460;2022-09-09T02:23:24;13.95;;;7.28;;
51636;SDS011;37713;53.254;6.460;2022-09-09T02:25:50;14.75;;;6.93;;
51636;SDS011;37713;53.254;6.460;2022-09-09T02:28:18;11.25;;;7.07;;
51636;SDS011;37713;53.254;6.460;2022-09-09T02:30:48;13.23;;;7.05;;
51636;SDS011;37713;53.254;6.460;2022-09-09T02:33:22;13.18;;;7.82;;
51636;SDS011;37713;53.254;6.460;2022-09-09T02:35:51;16.70;;;7.40;;
51636;SDS011;37713;53.254;6.460;2022-09-09T02:38:18;12.60;;;7.32;;
51636;SDS011;37713;53.254;6.460;2022-09-09T02:40:47;12.23;;;7.18;;
51636;SDS011;37713;53.254;6.460;2022-09-09T02:43:14;12.45;;;7.93;;
51636;SDS011;37713;53.254;6.460;2022-09-09T02:45:42;12.40;;;8.00;;
51636;SDS011;37713;53.254;6.460;2022-09-09T02:54:26;14.75;;;8.52;;
51636;SDS011;37713;53.254;6.460;2022-09-09T02:56:55;14.30;;;7.88;;
51636;SDS011;37713;53.254;6.460;2022-09-09T02:59:44;16.15;;;9.00;;
51636;SDS011;37713;53.254;6.460;2022-09-09T03:02:10;16.20;;;8.43;;
51636;SDS011;37713;53.254;6.460;2022-09-09T03:04:37;14.93;;;8.93;;
51636;SDS011;37713;53.254;6.460;2022-09-09T03:07:04;20.65;;;9.60;;
51636;SDS011;37713;53.254;6.460;2022-09-09T03:09:30;13.90;;;9.20;;
51636;SDS011;37713;53.254;6.460;2022-09-09T03:11:57;16.42;;;9.20;;
51636;SDS011;37713;53.254;6.460;2022-09-09T03:14:24;13.30;;;8.93;;
51636;SDS011;37713;53.254;6.460;2022-09-09T03:16:51;17.17;;;9.10;;
51636;SDS011;37713;53.254;6.460;2022-09-09T03:19:17;16.92;;;8.95;;
51636;SDS011;37713;53.254;6.460;2022-09-09T03:21:44;18.42;;;9.80;;
51636;SDS011;37713;53.254;6.460;2022-09-09T03:24:10;15.98;;;9.55;;
51636;SDS011;37713;53.254;6.460;2022-09-09T03:26:36;15.88;;;8.82;;
51636;SDS011;37713;53.254;6.460;2022-09-09T03:29:03;13.35;;;8.60;;
51636;SDS011;37713;53.254;6.460;2022-09-09T03:31:31;17.63;;;9.32;;
51636;SDS011;37713;53.254;6.460;2022-09-09T03:33:58;15.05;;;8.57;;
51636;SDS011;37713;53.254;6.460;2022-09-09T03:36:24;16.20;;;8.32;;
51636;SDS011;37713;53.254;6.460;2022-09-09T03:38:51;18.13;;;8.60;;
51636;SDS011;37713;53.254;6.460;2022-09-09T03:41:19;12.80;;;8.05;;
51636;SDS011;37713;53.254;6.460;2022-09-09T03:43:51;19.00;;;8.65;;
51636;SDS011;37713;53.254;6.460;2022-09-09T03:46:21;13.68;;;8.07;;
51636;SDS011;37713;53.254;6.460;2022-09-09T03:48:49;13.80;;;7.97;;
51636;SDS011;37713;53.254;6.460;2022-09-09T03:51:15;14.23;;;8.25;;
51636;SDS011;37713;53.254;6.460;2022-09-09T03:53:41;13.10;;;7.63;;
51636;SDS011;37713;53.254;6.460;2022-09-09T03:56:08;17.98;;;8.07;;
51636;SDS011;37713;53.254;6.460;2022-09-09T03:58:34;11.65;;;7.22;;
51636;SDS011;37713;53.254;6.460;2022-09-09T04:01:11;13.45;;;6.47;;
51636;SDS011;37713;53.254;6.460;2022-09-09T04:03:42;13.50;;;6.30;;
51636;SDS011;37713;53.254;6.460;2022-09-09T04:06:10;16.02;;;6.05;;
51636;SDS011;37713;53.254;6.460;2022-09-09T04:08:38;15.80;;;5.88;;
51636;SDS011;37713;53.254;6.460;2022-09-09T04:11:05;14.18;;;6.03;;
51636;SDS011;37713;53.254;6.460;2022-09-09T04:13:33;13.55;;;6.10;;
51636;SDS011;37713;53.254;6.460;2022-09-09T04:16:00;12.80;;;5.13;;
51636;SDS011;37713;53.254;6.460;2022-09-09T04:18:27;7.43;;;4.97;;
51636;SDS011;37713;53.254;6.460;2022-09-09T04:20:56;10.98;;;5.55;;
51636;SDS011;37713;53.254;6.460;2022-09-09T04:23:23;11.35;;;5.10;;
51636;SDS011;37713;53.254;6.460;2022-09-09T04:25:53;11.23;;;5.30;;
51636;SDS011;37713;53.254;6.460;2022-09-09T04:28:20;16.27;;;5.47;;
51636;SDS011;37713;53.254;6.460;2022-09-09T04:30:47;9.55;;;5.22;;
51636;SDS011;37713;53.254;6.460;2022-09-09T04:33:14;9.90;;;4.95;;
51636;SDS011;37713;53.254;6.460;2022-09-09T04:35:44;11.38;;;5.25;;
51636;SDS011;37713;53.254;6.460;2022-09-09T04:38:12;14.98;;;5.93;;
51636;SDS011;37713;53.254;6.460;2022-09-09T04:40:38;10.15;;;5.38;;
51636;SDS011;37713;53.254;6.460;2022-09-09T04:43:08;11.70;;;5.05;;
51636;SDS011;37713;53.254;6.460;2022-09-09T04:45:34;14.38;;;5.93;;
51636;SDS011;37713;53.254;6.460;2022-09-09T04:48:00;10.65;;;5.13;;
51636;SDS011;37713;53.254;6.460;2022-09-09T04:50:27;15.75;;;5.95;;
51636;SDS011;37713;53.254;6.460;2022-09-09T04:52:53;13.45;;;5.70;;
51636;SDS011;37713;53.254;6.460;2022-09-09T04:55:19;11.50;;;5.45;;
51636;SDS011;37713;53.254;6.460;2022-09-09T04:57:45;9.15;;;4.90;;
51636;SDS011;37713;53.254;6.460;2022-09-09T05:00:11;10.95;;;5.10;;
51636;SDS011;37713;53.254;6.460;2022-09-09T05:02:38;12.52;;;5.22;;
51636;SDS011;37713;53.254;6.460;2022-09-09T05:05:05;9.90;;;5.20;;
51636;SDS011;37713;53.254;6.460;2022-09-09T05:07:31;12.13;;;5.13;;
51636;SDS011;37713;53.254;6.460;2022-09-09T05:09:57;10.30;;;5.40;;
51636;SDS011;37713;53.254;6.460;2022-09-09T05:12:23;11.45;;;5.30;;
51636;SDS011;37713;53.254;6.460;2022-09-09T05:14:51;11.80;;;5.38;;
51636;SDS011;37713;53.254;6.460;2022-09-09T05:17:17;10.60;;;5.18;;
51636;SDS011;37713;53.254;6.460;2022-09-09T05:19:43;14.70;;;5.50;;
51636;SDS011;37713;53.254;6.460;2022-09-09T05:22:09;9.05;;;5.20;;
51636;SDS011;37713;53.254;6.460;2022-09-09T05:24:37;12.40;;;5.47;;
51636;SDS011;37713;53.254;6.460;2022-09-09T05:27:03;11.80;;;5.28;;
51636;SDS011;37713;53.254;6.460;2022-09-09T05:29:31;14.48;;;5.95;;
51636;SDS011;37713;53.254;6.460;2022-09-09T05:31:58;14.95;;;5.80;;
51636;SDS011;37713;53.254;6.460;2022-09-09T05:34:24;9.65;;;5.35;;
51636;SDS011;37713;53.254;6.460;2022-09-09T05:36:50;10.82;;;6.30;;
51636;SDS011;37713;53.254;6.460;2022-09-09T05:39:17;11.55;;;6.30;;
51636;SDS011;37713;53.254;6.460;2022-09-09T05:41:43;11.93;;;6.03;;
51636;SDS011;37713;53.254;6.460;2022-09-09T05:44:09;10.15;;;6.40;;
51636;SDS011;37713;53.254;6.460;2022-09-09T05:46:35;13.38;;;6.60;;
51636;SDS011;37713;53.254;6.460;2022-09-09T05:49:01;11.32;;;6.28;;
51636;SDS011;37713;53.254;6.460;2022-09-09T05:51:27;12.40;;;6.75;;
51636;SDS011;37713;53.254;6.460;2022-09-09T05:53:55;14.30;;;6.68;;
51636;SDS011;37713;53.254;6.460;2022-09-09T05:56:24;10.48;;;6.43;;
51636;SDS011;37713;53.254;6.460;2022-09-09T05:58:51;12.88;;;7.72;;
51636;SDS011;37713;53.254;6.460;2022-09-09T06:03:46;12.85;;;7.00;;
51636;SDS011;37713;53.254;6.460;2022-09-09T06:06:14;13.88;;;7.35;;
51636;SDS011;37713;53.254;6.460;2022-09-09T06:08:47;14.65;;;8.00;;
51636;SDS011;37713;53.254;6.460;2022-09-09T06:11:17;11.93;;;6.53;;
51636;SDS011;37713;53.254;6.460;2022-09-09T06:13:44;15.32;;;7.40;;
51636;SDS011;37713;53.254;6.460;2022-09-09T06:16:12;14.57;;;7.90;;
51636;SDS011;37713;53.254;6.460;2022-09-09T06:18:39;15.70;;;7.43;;
51636;SDS011;37713;53.254;6.460;2022-09-09T06:21:06;12.10;;;7.30;;
51636;SDS011;37713;53.254;6.460;2022-09-09T06:23:36;17.73;;;6.97;;
51636;SDS011;37713;53.254;6.460;2022-09-09T06:26:06;12.32;;;6.90;;
51636;SDS011;37713;53.254;6.460;2022-09-09T06:28:36;13.20;;;7.35;;
51636;SDS011;37713;53.254;6.460;2022-09-09T06:31:04;12.85;;;7.80;;
51636;SDS011;37713;53.254;6.460;2022-09-09T06:33:32;13.03;;;7.63;;
51636;SDS011;37713;53.254;6.460;2022-09-09T06:36:04;12.60;;;7.72;;
51636;SDS011;37713;53.254;6.460;2022-09-09T06:38:30;14.68;;;7.18;;
51636;SDS011;37713;53.254;6.460;2022-09-09T06:40:57;15.88;;;7.47;;
51636;SDS011;37713;53.254;6.460;2022-09-09T06:43:24;12.98;;;7.32;;
51636;SDS011;37713;53.254;6.460;2022-09-09T06:48:20;12.00;;;7.22;;
51636;SDS011;37713;53.254;6.460;2022-09-09T06:50:46;16.25;;;8.25;;
51636;SDS011;37713;53.254;6.460;2022-09-09T06:53:12;14.00;;;7.90;;
51636;SDS011;37713;53.254;6.460;2022-09-09T06:55:41;11.52;;;7.30;;
51636;SDS011;37713;53.254;6.460;2022-09-09T06:58:09;15.32;;;7.63;;
51636;SDS011;37713;53.254;6.460;2022-09-09T07:00:35;11.77;;;7.55;;
51636;SDS011;37713;53.254;6.460;2022-09-09T07:03:03;13.90;;;7.25;;
51636;SDS011;37713;53.254;6.460;2022-09-09T07:05:28;11.57;;;6.82;;
51636;SDS011;37713;53.254;6.460;2022-09-09T07:07:54;10.75;;;6.78;;
51636;SDS011;37713;53.254;6.460;2022-09-09T07:10:20;13.35;;;6.45;;
51636;SDS011;37713;53.254;6.460;2022-09-09T07:12:50;12.20;;;6.53;;
51636;SDS011;37713;53.254;6.460;2022-09-09T07:15:17;12.00;;;7.00;;
51636;SDS011;37713;53.254;6.460;2022-09-09T07:17:43;11.57;;;6.43;;
51636;SDS011;37713;53.254;6.460;2022-09-09T07:20:09;12.07;;;6.32;;
51636;SDS011;37713;53.254;6.460;2022-09-09T07:22:36;13.82;;;6.07;;
51636;SDS011;37713;53.254;6.460;2022-09-09T07:25:02;10.27;;;6.20;;
51636;SDS011;37713;53.254;6.460;2022-09-09T07:27:28;12.32;;;6.20;;
51636;SDS011;37713;53.254;6.460;2022-09-09T07:29:55;12.30;;;6.13;;
51636;SDS011;37713;53.254;6.460;2022-09-09T07:32:22;11.65;;;6.47;;
51636;SDS011;37713;53.254;6.460;2022-09-09T07:34:48;11.07;;;6.60;;
51636;SDS011;37713;53.254;6.460;2022-09-09T07:37:15;12.80;;;6.30;;
51636;SDS011;37713;53.254;6.460;2022-09-09T07:39:41;10.05;;;6.10;;
51636;SDS011;37713;53.254;6.460;2022-09-09T07:42:07;10.98;;;6.53;;
51636;SDS011;37713;53.254;6.460;2022-09-09T07:44:36;11.55;;;6.38;;
51636;SDS011;37713;53.254;6.460;2022-09-09T07:47:04;12.25;;;6.68;;
51636;SDS011;37713;53.254;6.460;2022-09-09T07:49:31;16.42;;;6.97;;
51636;SDS011;37713;53.254;6.460;2022-09-09T07:51:57;14.38;;;6.22;;
51636;SDS011;37713;53.254;6.460;2022-09-09T07:54:23;9.90;;;6.10;;
51636;SDS011;37713;53.254;6.460;2022-09-09T07:56:49;13.35;;;6.32;;
51636;SDS011;37713;53.254;6.460;2022-09-09T07:59:17;11.15;;;5.63;;
51636;SDS011;37713;53.254;6.460;2022-09-09T08:01:48;15.55;;;6.03;;
51636;SDS011;37713;53.254;6.460;2022-09-09T08:04:19;13.70;;;6.22;;
51636;SDS011;37713;53.254;6.460;2022-09-09T08:06:51;9.93;;;5.35;;
51636;SDS011;37713;53.254;6.460;2022-09-09T08:09:19;11.38;;;5.45;;
51636;SDS011;37713;53.254;6.460;2022-09-09T08:11:45;9.85;;;5.80;;
51636;SDS011;37713;53.254;6.460;2022-09-09T08:14:12;12.77;;;6.03;;
51636;SDS011;37713;53.254;6.460;2022-09-09T08:16:47;12.18;;;5.65;;
51636;SDS011;37713;53.254;6.460;2022-09-09T08:19:14;8.05;;;5.10;;
51636;SDS011;37713;53.254;6.460;2022-09-09T08:21:40;8.68;;;5.38;;
51636;SDS011;37713;53.254;6.460;2022-09-09T08:24:07;11.00;;;5.65;;
51636;SDS011;37713;53.254;6.460;2022-09-09T08:26:34;9.45;;;5.20;;
51636;SDS011;37713;53.254;6.460;2022-09-09T08:29:12;9.90;;;5.28;;
51636;SDS011;37713;53.254;6.460;2022-09-09T08:31:45;9.88;;;5.47;;
51636;SDS011;37713;53.254;6.460;2022-09-09T08:34:12;9.93;;;5.18;;
51636;SDS011;37713;53.254;6.460;2022-09-09T08:36:42;11.02;;;5.35;;
51636;SDS011;37713;53.254;6.460;2022-09-09T08:39:10;9.20;;;5.40;;
51636;SDS011;37713;53.254;6.460;2022-09-09T08:55:34;9.60;;;4.72;;
51636;SDS011;37713;53.254;6.460;2022-09-09T08:58:23;11.23;;;4.95;;
51636;SDS011;37713;53.254;6.460;2022-09-09T09:11:35;16.90;;;4.95;;
51636;SDS011;37713;53.254;6.460;2022-09-09T09:17:01;8.18;;;4.35;;
51636;SDS011;37713;53.254;6.460;2022-09-09T09:19:39;10.20;;;4.50;;
51636;SDS011;37713;53.254;6.460;2022-09-09T09:27:32;10.93;;;4.65;;
51636;SDS011;37713;53.254;6.460;2022-09-09T09:30:11;10.27;;;4.43;;
51636;SDS011;37713;53.254;6.460;2022-09-09T09:32:44;10.20;;;4.43;;
51636;SDS011;37713;53.254;6.460;2022-09-09T09:35:23;6.85;;;3.80;;
51636;SDS011;37713;53.254;6.460;2022-09-09T09:37:49;10.30;;;4.35;;
51636;SDS011;37713;53.254;6.460;2022-09-09T09:40:16;9.95;;;4.47;;
51636;SDS011;37713;53.254;6.460;2022-09-09T09:46:01;11.15;;;4.80;;
51636;SDS011;37713;53.254;6.460;2022-09-09T09:48:12;7.05;;;3.72;;
51636;SDS011;37713;53.254;6.460;2022-09-09T09:50:51;11.15;;;4.03;;
51636;SDS011;37713;53.254;6.460;2022-09-09T09:53:29;10.27;;;3.40;;
51636;SDS011;37713;53.254;6.460;2022-09-09T09:56:05;13.00;;;3.45;;
51636;SDS011;37713;53.254;6.460;2022-09-09T09:58:53;11.40;;;3.65;;
51636;SDS011;37713;53.254;6.460;2022-09-09T10:01:24;9.30;;;3.13;;
51636;SDS011;37713;53.254;6.460;2022-09-09T10:04:02;8.35;;;2.80;;
51636;SDS011;37713;53.254;6.460;2022-09-09T10:06:41;10.18;;;3.17;;
51636;SDS011;37713;53.254;6.460;2022-09-09T10:09:20;10.63;;;3.10;;
51636;SDS011;37713;53.254;6.460;2022-09-09T10:11:55;10.80;;;3.30;;
51636;SDS011;37713;53.254;6.460;2022-09-09T10:17:35;8.85;;;2.88;;
51636;SDS011;37713;53.254;6.460;2022-09-09T10:37:16;11.70;;;2.33;;
51636;SDS011;37713;53.254;6.460;2022-09-09T10:40:21;9.48;;;2.55;;
51636;SDS011;37713;53.254;6.460;2022-09-09T10:43:12;8.82;;;2.50;;
51636;SDS011;37713;53.254;6.460;2022-09-09T10:54:18;7.25;;;1.95;;
51636;SDS011;37713;53.254;6.460;2022-09-09T10:59:54;8.82;;;1.83;;
51636;SDS011;37713;53.254;6.460;2022-09-09T11:02:28;6.97;;;1.75;;
51636;SDS011;37713;53.254;6.460;2022-09-09T11:10:45;7.22;;;1.90;;
51636;SDS011;37713;53.254;6.460;2022-09-09T11:16:22;6.88;;;1.58;;
51636;SDS011;37713;53.254;6.460;2022-09-09T11:19:07;9.95;;;2.08;;
51636;SDS011;37713;53.254;6.460;2022-09-09T11:21:52;9.75;;;2.20;;
51636;SDS011;37713;53.254;6.460;2022-09-09T11:27:07;7.28;;;2.00;;
51636;SDS011;37713;53.254;6.460;2022-09-09T11:32:40;5.30;;;1.38;;
51636;SDS011;37713;53.254;6.460;2022-09-09T11:38:27;6.43;;;1.58;;
51636;SDS011;37713;53.254;6.460;2022-09-09T11:41:10;8.20;;;2.05;;
51636;SDS011;37713;53.254;6.460;2022-09-09T11:43:46;7.75;;;1.95;;
51636;SDS011;37713;53.254;6.460;2022-09-09T11:46:15;8.32;;;1.80;;
51636;SDS011;37713;53.254;6.460;2022-09-09T11:48:45;7.45;;;1.50;;
51636;SDS011;37713;53.254;6.460;2022-09-09T11:51:29;6.00;;;1.55;;
51636;SDS011;37713;53.254;6.460;2022-09-09T11:53:58;5.85;;;1.70;;
51636;SDS011;37713;53.254;6.460;2022-09-09T11:56:43;8.77;;;1.80;;
51636;SDS011;37713;53.254;6.460;2022-09-09T12:02:47;6.45;;;1.75;;
51636;SDS011;37713;53.254;6.460;2022-09-09T12:09:56;8.27;;;1.80;;
51636;SDS011;37713;53.254;6.460;2022-09-09T12:12:33;7.53;;;1.80;;
51636;SDS011;37713;53.254;6.460;2022-09-09T12:17:45;7.13;;;1.60;;
51636;SDS011;37713;53.254;6.460;2022-09-09T12:20:34;8.32;;;1.52;;
51636;SDS011;37713;53.254;6.460;2022-09-09T12:34:30;10.18;;;2.05;;
51636;SDS011;37713;53.254;6.460;2022-09-09T12:39:58;6.97;;;1.67;;
51636;SDS011;37713;53.254;6.460;2022-09-09T12:42:27;8.73;;;1.50;;
51636;SDS011;37713;53.254;6.460;2022-09-09T12:44:57;6.55;;;1.50;;
51636;SDS011;37713;53.254;6.460;2022-09-09T12:47:36;7.18;;;1.63;;
51636;SDS011;37713;53.254;6.460;2022-09-09T12:50:20;8.07;;;1.58;;
51636;SDS011;37713;53.254;6.460;2022-09-09T12:52:48;6.93;;;1.25;;
51636;SDS011;37713;53.254;6.460;2022-09-09T12:55:24;5.90;;;1.33;;
51636;SDS011;37713;53.254;6.460;2022-09-09T12:57:52;6.00;;;1.35;;
51636;SDS011;37713;53.254;6.460;2022-09-09T13:00:20;10.38;;;1.60;;
51636;SDS011;37713;53.254;6.460;2022-09-09T13:05:19;7.25;;;1.60;;
51636;SDS011;37713;53.254;6.460;2022-09-09T13:07:48;6.32;;;1.40;;
51636;SDS011;37713;53.254;6.460;2022-09-09T13:10:15;8.90;;;1.40;;
51636;SDS011;37713;53.254;6.460;2022-09-09T13:12:51;6.80;;;1.30;;
51636;SDS011;37713;53.254;6.460;2022-09-09T13:15:24;6.55;;;1.33;;
51636;SDS011;37713;53.254;6.460;2022-09-09T13:17:57;4.53;;;1.50;;
51636;SDS011;37713;53.254;6.460;2022-09-09T13:20:25;5.72;;;1.17;;
51636;SDS011;37713;53.254;6.460;2022-09-09T13:22:52;8.38;;;1.52;;
51636;SDS011;37713;53.254;6.460;2022-09-09T13:25:21;7.30;;;1.58;;
51636;SDS011;37713;53.254;6.460;2022-09-09T13:28:36;11.07;;;1.67;;
51636;SDS011;37713;53.254;6.460;2022-09-09T13:30:54;8.50;;;1.42;;
51636;SDS011;37713;53.254;6.460;2022-09-09T13:33:44;7.53;;;1.50;;
51636;SDS011;37713;53.254;6.460;2022-09-09T13:36:10;6.18;;;1.50;;
51636;SDS011;37713;53.254;6.460;2022-09-09T13:38:38;6.03;;;1.88;;
51636;SDS011;37713;53.254;6.460;2022-09-09T13:41:06;10.02;;;1.48;;
51636;SDS011;37713;53.254;6.460;2022-09-09T13:43:36;7.13;;;1.60;;
51636;SDS011;37713;53.254;6.460;2022-09-09T13:46:25;8.40;;;1.33;;
51636;SDS011;37713;53.254;6.460;2022-09-09T13:49:17;11.35;;;1.60;;
51636;SDS011;37713;53.254;6.460;2022-09-09T13:51:46;9.15;;;1.60;;
51636;SDS011;37713;53.254;6.460;2022-09-09T13:54:16;5.28;;;1.23;;
51636;SDS011;37713;53.254;6.460;2022-09-09T13:56:44;6.68;;;1.67;;
51636;SDS011;37713;53.254;6.460;2022-09-09T13:59:11;5.63;;;1.40;;
51636;SDS011;37713;53.254;6.460;2022-09-09T14:01:39;7.88;;;1.60;;
51636;SDS011;37713;53.254;6.460;2022-09-09T14:04:06;7.15;;;1.52;;
51636;SDS011;37713;53.254;6.460;2022-09-09T14:06:32;6.30;;;1.38;;
51636;SDS011;37713;53.254;6.460;2022-09-09T14:09:05;5.05;;;1.20;;
51636;SDS011;37713;53.254;6.460;2022-09-09T14:11:32;9.82;;;1.60;;
51636;SDS011;37713;53.254;6.460;2022-09-09T14:13:57;6.45;;;1.40;;
51636;SDS011;37713;53.254;6.460;2022-09-09T14:16:23;7.60;;;1.35;;
51636;SDS011;37713;53.254;6.460;2022-09-09T14:18:49;8.48;;;1.33;;
51636;SDS011;37713;53.254;6.460;2022-09-09T14:21:15;6.90;;;1.10;;
51636;SDS011;37713;53.254;6.460;2022-09-09T14:23:41;5.45;;;1.10;;
51636;SDS011;37713;53.254;6.460;2022-09-09T14:26:07;5.55;;;1.02;;
51636;SDS011;37713;53.254;6.460;2022-09-09T14:28:33;10.00;;;1.42;;
51636;SDS011;37713;53.254;6.460;2022-09-09T14:31:00;6.05;;;1.30;;
51636;SDS011;37713;53.254;6.460;2022-09-09T14:33:28;6.28;;;1.30;;
51636;SDS011;37713;53.254;6.460;2022-09-09T14:36:01;10.60;;;1.58;;
51636;SDS011;37713;53.254;6.460;2022-09-09T14:38:29;5.47;;;1.50;;
51636;SDS011;37713;53.254;6.460;2022-09-09T14:40:56;5.82;;;1.45;;
51636;SDS011;37713;53.254;6.460;2022-09-09T14:43:23;5.60;;;1.33;;
51636;SDS011;37713;53.254;6.460;2022-09-09T14:45:49;5.28;;;1.60;;
51636;SDS011;37713;53.254;6.460;2022-09-09T14:48:16;9.02;;;2.10;;
51636;SDS011;37713;53.254;6.460;2022-09-09T14:50:42;6.18;;;1.20;;
51636;SDS011;37713;53.254;6.460;2022-09-09T14:53:08;6.65;;;1.30;;
51636;SDS011;37713;53.254;6.460;2022-09-09T14:55:35;6.65;;;1.70;;
51636;SDS011;37713;53.254;6.460;2022-09-09T14:58:02;7.70;;;1.60;;
51636;SDS011;37713;53.254;6.460;2022-09-09T15:00:28;6.25;;;1.50;;
51636;SDS011;37713;53.254;6.460;2022-09-09T15:02:55;7.68;;;1.40;;
51636;SDS011;37713;53.254;6.460;2022-09-09T15:05:21;7.20;;;1.33;;
51636;SDS011;37713;53.254;6.460;2022-09-09T15:07:47;6.97;;;1.20;;
51636;SDS011;37713;53.254;6.460;2022-09-09T15:10:15;7.07;;;1.25;;
51636;SDS011;37713;53.254;6.460;2022-09-09T15:12:42;7.18;;;1.30;;
51636;SDS011;37713;53.254;6.460;2022-09-09T15:15:09;6.32;;;1.00;;
51636;SDS011;37713;53.254;6.460;2022-09-09T15:17:35;5.47;;;1.13;;
51636;SDS011;37713;53.254;6.460;2022-09-09T15:20:02;6.43;;;1.13;;
51636;SDS011;37713;53.254;6.460;2022-09-09T15:22:28;2.65;;;0.88;;
51636;SDS011;37713;53.254;6.460;2022-09-09T15:24:54;4.88;;;1.20;;
51636;SDS011;37713;53.254;6.460;2022-09-09T15:27:20;3.90;;;1.00;;
51636;SDS011;37713;53.254;6.460;2022-09-09T15:29:45;2.92;;;0.90;;
51636;SDS011;37713;53.254;6.460;2022-09-09T15:32:12;6.25;;;1.30;;
51636;SDS011;37713;53.254;6.460;2022-09-09T15:34:37;6.32;;;1.75;;
51636;SDS011;37713;53.254;6.460;2022-09-09T15:37:03;4.72;;;1.10;;
51636;SDS011;37713;53.254;6.460;2022-09-09T15:39:29;8.55;;;1.05;;
51636;SDS011;37713;53.254;6.460;2022-09-09T15:41:55;3.95;;;1.02;;
51636;SDS011;37713;53.254;6.460;2022-09-09T15:44:22;3.88;;;1.13;;
51636;SDS011;37713;53.254;6.460;2022-09-09T15:46:51;3.72;;;0.93;;
51636;SDS011;37713;53.254;6.460;2022-09-09T15:49:24;14.15;;;1.58;;
51636;SDS011;37713;53.254;6.460;2022-09-09T15:51:52;7.43;;;1.10;;
51636;SDS011;37713;53.254;6.460;2022-09-09T15:54:23;3.30;;;0.80;;
51636;SDS011;37713;53.254;6.460;2022-09-09T15:57:00;5.50;;;1.00;;
51636;SDS011;37713;53.254;6.460;2022-09-09T15:59:29;4.78;;;1.00;;
51636;SDS011;37713;53.254;6.460;2022-09-09T16:01:56;5.55;;;1.10;;
51636;SDS011;37713;53.254;6.460;2022-09-09T16:04:25;9.15;;;1.20;;
51636;SDS011;37713;53.254;6.460;2022-09-09T16:06:52;6.57;;;1.13;;
51636;SDS011;37713;53.254;6.460;2022-09-09T16:09:19;4.78;;;1.00;;
51636;SDS011;37713;53.254;6.460;2022-09-09T16:11:46;5.78;;;1.08;;
51636;SDS011;37713;53.254;6.460;2022-09-09T16:14:12;11.20;;;1.30;;
51636;SDS011;37713;53.254;6.460;2022-09-09T16:16:40;7.90;;;1.30;;
51636;SDS011;37713;53.254;6.460;2022-09-09T16:19:07;4.25;;;1.13;;
51636;SDS011;37713;53.254;6.460;2022-09-09T16:21:39;5.85;;;1.10;;
51636;SDS011;37713;53.254;6.460;2022-09-09T16:24:07;6.32;;;1.67;;
51636;SDS011;37713;53.254;6.460;2022-09-09T16:26:35;5.20;;;1.00;;
51636;SDS011;37713;53.254;6.460;2022-09-09T16:29:02;7.60;;;1.23;;
51636;SDS011;37713;53.254;6.460;2022-09-09T16:31:29;9.82;;;1.30;;
51636;SDS011;37713;53.254;6.460;2022-09-09T16:33:57;4.43;;;1.30;;
51636;SDS011;37713;53.254;6.460;2022-09-09T16:36:24;7.38;;;1.40;;
51636;SDS011;37713;53.254;6.460;2022-09-09T16:38:52;5.75;;;1.95;;
51636;SDS011;37713;53.254;6.460;2022-09-09T16:41:20;4.75;;;1.60;;
51636;SDS011;37713;53.254;6.460;2022-09-09T16:43:46;4.82;;;1.70;;
51636;SDS011;37713;53.254;6.460;2022-09-09T16:46:16;14.82;;;1.95;;
51636;SDS011;37713;53.254;6.460;2022-09-09T16:48:44;5.57;;;1.30;;
51636;SDS011;37713;53.254;6.460;2022-09-09T16:51:15;5.63;;;1.67;;
51636;SDS011;37713;53.254;6.460;2022-09-09T16:53:52;4.85;;;1.23;;
51636;SDS011;37713;53.254;6.460;2022-09-09T16:56:20;3.42;;;1.38;;
51636;SDS011;37713;53.254;6.460;2022-09-09T16:58:52;12.93;;;1.50;;
51636;SDS011;37713;53.254;6.460;2022-09-09T17:01:26;12.15;;;1.70;;
51636;SDS011;37713;53.254;6.460;2022-09-09T17:03:53;3.50;;;1.10;;
51636;SDS011;37713;53.254;6.460;2022-09-09T17:06:20;8.70;;;1.42;;
51636;SDS011;37713;53.254;6.460;2022-09-09T17:08:46;5.50;;;1.42;;
51636;SDS011;37713;53.254;6.460;2022-09-09T17:11:18;4.55;;;1.58;;
51636;SDS011;37713;53.254;6.460;2022-09-09T17:13:44;11.15;;;1.80;;
51636;SDS011;37713;53.254;6.460;2022-09-09T17:16:12;4.05;;;1.20;;
51636;SDS011;37713;53.254;6.460;2022-09-09T17:18:39;6.43;;;1.17;;
51636;SDS011;37713;53.254;6.460;2022-09-09T17:21:06;3.40;;;1.20;;
51636;SDS011;37713;53.254;6.460;2022-09-09T17:23:34;4.40;;;1.02;;
51636;SDS011;37713;53.254;6.460;2022-09-09T17:26:03;5.73;;;1.60;;
51636;SDS011;37713;53.254;6.460;2022-09-09T17:28:34;6.07;;;1.20;;
51636;SDS011;37713;53.254;6.460;2022-09-09T17:31:00;10.60;;;1.70;;
51636;SDS011;37713;53.254;6.460;2022-09-09T17:33:29;6.22;;;1.35;;
51636;SDS011;37713;53.254;6.460;2022-09-09T17:35:59;2.90;;;1.10;;
51636;SDS011;37713;53.254;6.460;2022-09-09T17:38:27;3.60;;;1.30;;
51636;SDS011;37713;53.254;6.460;2022-09-09T17:41:00;5.07;;;1.50;;
51636;SDS011;37713;53.254;6.460;2022-09-09T17:43:27;9.07;;;2.00;;
51636;SDS011;37713;53.254;6.460;2022-09-09T17:45:53;8.63;;;2.80;;
51636;SDS011;37713;53.254;6.460;2022-09-09T17:48:19;12.95;;;2.25;;
51636;SDS011;37713;53.254;6.460;2022-09-09T17:50:45;11.25;;;2.63;;
51636;SDS011;37713;53.254;6.460;2022-09-09T17:53:11;10.57;;;2.13;;
51636;SDS011;37713;53.254;6.460;2022-09-09T17:55:37;8.52;;;2.25;;